createdAt,value
2023-02-23T00:00:28.483Z,19.83
2023-02-23T00:03:01.844Z,20.35
2023-02-23T00:05:35.284Z,19.35
2023-02-23T00:08:02.258Z,17.88
2023-02-23T00:10:32.104Z,18.27
2023-02-23T00:12:59.829Z,18.33
2023-02-23T00:15:27.956Z,18.73
2023-02-23T00:22:07.802Z,17.63
2023-02-23T00:24:36.680Z,18.67
2023-02-23T00:27:21.017Z,18.17
2023-02-23T00:29:49.739Z,18.67
2023-02-23T00:32:20.901Z,17.50
2023-02-23T00:34:51.374Z,18.48
2023-02-23T00:37:19.227Z,18.88
2023-02-23T00:39:48.725Z,19.08
2023-02-23T00:42:16.099Z,18.95
2023-02-23T00:44:43.245Z,18.15
2023-02-23T00:47:10.422Z,18.23
2023-02-23T00:49:37.390Z,19.85
2023-02-23T00:52:05.215Z,18.20
2023-02-23T00:54:57.404Z,19.58
2023-02-23T00:57:24.455Z,19.27
2023-02-23T00:59:51.440Z,17.70
2023-02-23T01:02:18.413Z,17.58
2023-02-23T01:04:45.455Z,19.48
2023-02-23T01:07:13.146Z,18.48
2023-02-23T01:09:40.759Z,20.00
2023-02-23T01:12:08.221Z,20.20
2023-02-23T01:14:37.716Z,21.88
2023-02-23T01:17:04.775Z,22.10
2023-02-23T01:19:34.194Z,20.35
2023-02-23T01:22:03.772Z,21.27
2023-02-23T01:24:31.006Z,21.20
2023-02-23T01:26:57.977Z,22.15
2023-02-23T01:29:24.944Z,21.27
2023-02-23T01:31:52.074Z,21.45
2023-02-23T01:34:21.777Z,21.23
2023-02-23T01:39:18.988Z,20.95
2023-02-23T01:41:46.300Z,19.73
2023-02-23T01:44:15.106Z,21.55
2023-02-23T01:46:45.458Z,24.05
2023-02-23T01:49:20.474Z,24.52
2023-02-23T01:51:52.416Z,23.67
2023-02-23T01:54:24.680Z,22.75
2023-02-23T01:56:58.471Z,24.77
2023-02-23T01:59:34.297Z,25.55
2023-02-23T02:02:01.748Z,24.30
2023-02-23T02:04:33.669Z,25.00
2023-02-23T02:07:03.845Z,25.20
2023-02-23T02:09:37.929Z,24.38
2023-02-23T02:12:08.544Z,24.15
2023-02-23T02:14:36.313Z,24.45
2023-02-23T02:17:05.965Z,23.35
2023-02-23T02:22:50.416Z,21.45
2023-02-23T02:25:45.215Z,21.67
2023-02-23T02:28:27.216Z,23.15
2023-02-23T02:31:03.334Z,22.55
2023-02-23T02:33:37.988Z,21.23
2023-02-23T02:36:34.339Z,21.45
2023-02-23T02:39:24.091Z,24.38
2023-02-23T02:44:42.267Z,24.50
2023-02-23T02:47:16.445Z,25.75
2023-02-23T02:50:09.589Z,25.20
2023-02-23T02:52:55.869Z,25.90
2023-02-23T02:55:27.852Z,25.13
2023-02-23T02:57:59.120Z,25.80
2023-02-23T03:00:56.278Z,24.65
2023-02-23T03:03:57.769Z,23.65
2023-02-23T03:06:57.592Z,23.92
2023-02-23T03:09:57.563Z,23.30
2023-02-23T03:13:05.581Z,23.77
2023-02-23T03:16:32.309Z,23.60
2023-02-23T03:19:20.681Z,24.40
2023-02-23T03:22:16.420Z,24.50
2023-02-23T03:25:30.458Z,22.80
2023-02-23T03:28:17.231Z,23.85
2023-02-23T03:31:08.601Z,22.92
2023-02-23T03:34:04.552Z,23.10
2023-02-23T03:36:55.129Z,23.88
2023-02-23T03:40:15.906Z,25.52
2023-02-23T03:43:03.928Z,26.48
2023-02-23T03:45:49.886Z,24.77
2023-02-23T03:48:40.221Z,23.50
2023-02-23T03:51:28.015Z,25.45
2023-02-23T03:54:28.413Z,25.13
2023-02-23T03:57:18.015Z,23.77
2023-02-23T04:00:08.479Z,24.13
2023-02-23T04:03:00.956Z,23.65
2023-02-23T04:05:48.233Z,23.38
2023-02-23T04:08:37.690Z,25.30
2023-02-23T04:11:37.500Z,25.00
2023-02-23T04:16:32.817Z,23.70
2023-02-23T04:18:59.913Z,25.45
2023-02-23T04:21:26.875Z,25.20
2023-02-23T04:23:53.804Z,26.70
2023-02-23T04:26:20.763Z,26.33
2023-02-23T04:28:47.689Z,26.92
2023-02-23T04:31:14.716Z,26.33
2023-02-23T04:33:41.670Z,26.42
2023-02-23T04:36:08.758Z,25.58
2023-02-23T04:38:35.720Z,25.27
2023-02-23T04:41:02.664Z,26.77
2023-02-23T04:43:29.645Z,26.38
2023-02-23T04:45:56.681Z,26.65
2023-02-23T04:48:25.211Z,26.98
2023-02-23T04:50:53.680Z,26.00
2023-02-23T04:53:20.735Z,25.73
2023-02-23T04:55:47.749Z,25.42
2023-02-23T04:58:14.706Z,25.50
2023-02-23T05:00:42.101Z,25.10
2023-02-23T05:03:09.734Z,24.17
2023-02-23T05:05:37.064Z,25.27
2023-02-23T05:08:04.084Z,22.85
2023-02-23T05:10:31.037Z,24.63
2023-02-23T05:12:58.291Z,23.02
2023-02-23T05:15:25.245Z,24.08
2023-02-23T05:17:52.198Z,24.98
2023-02-23T05:20:19.176Z,24.38
2023-02-23T05:22:46.232Z,24.58
2023-02-23T05:25:13.264Z,23.63
2023-02-23T05:27:40.717Z,23.10
2023-02-23T05:30:09.966Z,24.92
2023-02-23T05:32:37.167Z,25.88
2023-02-23T05:35:04.539Z,26.52
2023-02-23T05:37:31.539Z,25.75
2023-02-23T05:39:58.461Z,25.10
2023-02-23T05:42:25.556Z,27.25
2023-02-23T05:44:52.499Z,27.85
2023-02-23T05:47:19.460Z,25.63
2023-02-23T05:49:46.555Z,27.10
2023-02-23T05:52:13.657Z,26.80
2023-02-23T05:54:40.639Z,26.77
2023-02-23T05:57:08.398Z,26.27
2023-02-23T05:59:35.545Z,26.58
2023-02-23T06:02:04.875Z,25.67
2023-02-23T06:04:48.205Z,27.58
2023-02-23T06:07:15.979Z,26.55
2023-02-23T06:09:44.494Z,25.13
2023-02-23T06:12:11.662Z,26.15
2023-02-23T06:14:38.702Z,25.13
2023-02-23T06:17:05.833Z,25.30
2023-02-23T06:19:32.960Z,26.23
2023-02-23T06:22:00.128Z,25.75
2023-02-23T06:24:27.131Z,26.13
2023-02-23T06:26:54.241Z,25.67
2023-02-23T06:29:21.190Z,28.20
2023-02-23T06:31:48.385Z,27.33
2023-02-23T06:34:15.410Z,27.13
2023-02-23T06:36:43.140Z,26.42
2023-02-23T06:39:11.631Z,25.83
2023-02-23T06:41:38.638Z,26.05
2023-02-23T06:44:05.762Z,25.88
2023-02-23T06:46:33.807Z,26.23
2023-02-23T06:49:00.865Z,25.92
2023-02-23T06:51:27.870Z,25.67
2023-02-23T06:53:54.789Z,26.60
2023-02-23T06:56:22.079Z,26.75
2023-02-23T06:58:49.259Z,27.60
2023-02-23T07:01:17.135Z,26.75
2023-02-23T07:03:44.341Z,25.75
2023-02-23T07:06:11.314Z,26.15
2023-02-23T07:08:38.865Z,26.60
2023-02-23T07:12:04.359Z,25.85
2023-02-23T07:14:31.345Z,27.77
2023-02-23T07:16:58.408Z,29.35
2023-02-23T07:19:25.729Z,29.35
2023-02-23T07:21:53.134Z,28.70
2023-02-23T07:24:20.121Z,28.80
2023-02-23T07:26:49.377Z,28.08
2023-02-23T07:29:16.580Z,26.05
2023-02-23T07:31:43.763Z,26.08
2023-02-23T07:34:10.815Z,24.08
2023-02-23T07:36:38.198Z,25.67
2023-02-23T07:39:05.621Z,26.92
2023-02-23T07:41:32.857Z,25.20
2023-02-23T07:44:00.546Z,25.85
2023-02-23T07:46:27.487Z,25.75
2023-02-23T07:48:54.407Z,23.63
2023-02-23T07:51:21.672Z,24.27
2023-02-23T07:53:49.688Z,23.17
2023-02-23T07:56:16.690Z,22.17
2023-02-23T07:58:44.576Z,21.63
2023-02-23T08:01:12.897Z,21.15
2023-02-23T08:03:40.034Z,19.95
2023-02-23T08:06:07.569Z,21.88
2023-02-23T08:08:35.566Z,20.88
2023-02-23T08:11:05.049Z,20.75
2023-02-23T08:13:32.704Z,20.33
2023-02-23T08:15:59.889Z,19.15
2023-02-23T08:18:27.872Z,20.35
2023-02-23T08:21:02.213Z,21.50
2023-02-23T08:23:34.146Z,20.65
2023-02-23T08:26:02.333Z,20.23
2023-02-23T08:28:30.543Z,22.08
2023-02-23T08:30:59.349Z,20.35
2023-02-23T08:33:26.765Z,21.13
2023-02-23T08:35:53.925Z,21.83
2023-02-23T08:38:21.145Z,20.60
2023-02-23T08:40:48.111Z,21.52
2023-02-23T08:43:16.314Z,20.33
2023-02-23T08:45:43.343Z,20.10
2023-02-23T08:48:10.330Z,20.83
2023-02-23T08:50:37.289Z,20.00
2023-02-23T08:56:55.384Z,19.77
2023-02-23T08:59:22.460Z,20.42
2023-02-23T09:01:49.490Z,20.70
2023-02-23T09:04:16.927Z,21.27
2023-02-23T09:06:44.613Z,19.33
2023-02-23T09:09:11.498Z,20.52
2023-02-23T09:11:38.484Z,19.35
2023-02-23T09:15:12.295Z,18.17
2023-02-23T09:17:39.606Z,18.10
2023-02-23T09:20:07.338Z,17.88
2023-02-23T09:22:36.882Z,18.25
2023-02-23T09:25:05.057Z,17.35
2023-02-23T09:27:32.391Z,16.98
2023-02-23T09:29:59.368Z,17.27
2023-02-23T09:32:26.399Z,18.05
2023-02-23T09:34:53.511Z,16.92
2023-02-23T09:37:20.477Z,17.83
2023-02-23T09:39:48.901Z,17.55
2023-02-23T09:42:49.152Z,17.33
2023-02-23T09:45:36.779Z,17.05
2023-02-23T09:48:12.491Z,16.48
2023-02-23T09:50:42.187Z,17.52
2023-02-23T09:53:28.401Z,19.30
2023-02-23T09:55:58.392Z,17.15
2023-02-23T09:58:34.018Z,17.85
2023-02-23T10:01:18.253Z,16.40
2023-02-23T10:04:07.135Z,14.88
2023-02-23T10:06:34.885Z,14.45
2023-02-23T10:09:41.073Z,13.93
2023-02-23T10:12:11.915Z,13.73
2023-02-23T10:15:41.490Z,13.45
2023-02-23T10:18:46.419Z,12.60
2023-02-23T10:21:19.628Z,12.02
2023-02-23T10:23:53.719Z,12.65
2023-02-23T10:26:25.158Z,13.05
2023-02-23T10:29:33.385Z,12.68
2023-02-23T10:32:06.331Z,12.90
2023-02-23T10:34:33.927Z,11.60
2023-02-23T10:37:02.306Z,10.48
2023-02-23T10:39:31.087Z,10.15
2023-02-23T10:42:02.780Z,9.82
2023-02-23T10:44:29.965Z,8.43
2023-02-23T10:47:09.420Z,9.63
2023-02-23T10:49:45.597Z,9.55
2023-02-23T10:52:15.833Z,10.38
2023-02-23T10:54:48.900Z,10.45
2023-02-23T10:57:40.193Z,10.32
2023-02-23T11:00:17.046Z,10.65
2023-02-23T11:02:45.149Z,10.63
2023-02-23T11:05:35.162Z,10.50
2023-02-23T11:08:12.383Z,10.60
2023-02-23T11:10:39.690Z,11.10
2023-02-23T11:13:06.689Z,10.02
2023-02-23T11:15:50.607Z,10.63
2023-02-23T11:18:24.936Z,10.60
2023-02-23T11:20:52.798Z,11.20
2023-02-23T11:23:24.453Z,10.10
2023-02-23T11:25:57.073Z,9.70
2023-02-23T11:28:34.928Z,10.18
2023-02-23T11:31:08.865Z,10.18
2023-02-23T11:33:38.880Z,9.80
2023-02-23T11:36:20.654Z,9.40
2023-02-23T11:38:47.976Z,9.80
2023-02-23T11:41:24.256Z,9.48
2023-02-23T11:43:56.710Z,8.85
2023-02-23T11:46:25.887Z,8.85
2023-02-23T11:49:07.849Z,8.65
2023-02-23T11:51:38.362Z,8.13
2023-02-23T11:54:07.070Z,8.73
2023-02-23T11:56:35.633Z,8.02
2023-02-23T11:59:07.447Z,8.18
2023-02-23T12:01:41.864Z,7.70
2023-02-23T12:04:10.513Z,6.47
2023-02-23T12:06:41.431Z,6.57
2023-02-23T12:09:31.446Z,5.78
2023-02-23T12:12:21.907Z,6.30
2023-02-23T12:14:55.852Z,6.43
2023-02-23T12:17:37.051Z,6.22
2023-02-23T12:20:15.972Z,5.80
2023-02-23T12:22:57.966Z,5.73
2023-02-23T12:25:36.341Z,6.05
2023-02-23T12:28:18.509Z,6.10
2023-02-23T12:31:15.283Z,6.20
2023-02-23T12:33:46.401Z,6.07
2023-02-23T12:36:38.570Z,6.13
2023-02-23T12:39:21.473Z,4.50
2023-02-23T12:42:11.405Z,4.88
2023-02-23T12:45:11.493Z,4.93
2023-02-23T12:48:11.905Z,4.68
2023-02-23T12:50:40.780Z,4.45
2023-02-23T12:53:39.616Z,4.88
2023-02-23T12:56:33.461Z,3.53
2023-02-23T12:59:13.479Z,5.68
2023-02-23T13:02:04.747Z,4.47
2023-02-23T13:05:05.175Z,4.72
2023-02-23T13:07:34.876Z,5.32
2023-02-23T13:10:39.459Z,4.15
2023-02-23T13:13:18.454Z,5.20
2023-02-23T13:16:04.566Z,5.07
2023-02-23T13:19:08.956Z,4.38
2023-02-23T13:21:44.677Z,4.07
2023-02-23T13:24:19.288Z,4.63
2023-02-23T13:27:07.457Z,4.93
2023-02-23T13:29:36.849Z,5.10
2023-02-23T13:32:11.002Z,5.50
2023-02-23T13:35:03.248Z,4.93
2023-02-23T13:38:15.155Z,4.10
2023-02-23T13:41:14.359Z,4.57
2023-02-23T13:44:01.488Z,4.70
2023-02-23T13:46:57.955Z,5.38
2023-02-23T13:49:37.782Z,6.75
2023-02-23T13:52:42.045Z,6.28
2023-02-23T13:55:29.411Z,7.72
2023-02-23T13:58:25.844Z,5.95
2023-02-23T14:01:27.631Z,6.50
2023-02-23T14:03:57.897Z,5.35
2023-02-23T14:06:27.730Z,5.45
2023-02-23T14:11:43.404Z,5.35
2023-02-23T14:14:37.190Z,5.13
2023-02-23T14:17:16.294Z,6.13
2023-02-23T14:20:06.831Z,5.35
2023-02-23T14:22:35.061Z,4.90
2023-02-23T14:25:33.265Z,4.20
2023-02-23T14:28:02.039Z,4.95
2023-02-23T14:30:43.318Z,4.00
2023-02-23T14:33:42.203Z,3.85
2023-02-23T14:36:24.414Z,4.40
2023-02-23T14:39:00.400Z,4.47
2023-02-23T14:41:50.204Z,3.85
2023-02-23T14:44:31.584Z,3.90
2023-02-23T14:47:15.753Z,4.30
2023-02-23T14:49:46.497Z,3.70
2023-02-23T14:52:28.333Z,4.18
2023-02-23T14:55:13.174Z,4.30
2023-02-23T14:57:41.916Z,4.07
2023-02-23T15:00:16.251Z,4.47
2023-02-23T15:03:05.229Z,4.13
2023-02-23T15:05:59.653Z,4.73
2023-02-23T15:08:29.929Z,4.65
2023-02-23T15:11:04.108Z,4.47
2023-02-23T15:16:07.695Z,6.15
2023-02-23T15:19:30.597Z,5.95
2023-02-23T15:21:59.546Z,6.13
2023-02-23T15:24:48.803Z,7.30
2023-02-23T15:27:25.849Z,8.80
2023-02-23T15:29:55.759Z,8.90
2023-02-23T15:32:25.574Z,9.80
2023-02-23T15:34:53.624Z,10.63
2023-02-23T15:37:34.065Z,10.13
2023-02-23T15:40:06.044Z,10.20
2023-02-23T15:42:41.438Z,10.98
2023-02-23T15:45:20.923Z,9.45
2023-02-23T15:47:48.702Z,10.90
2023-02-23T15:50:36.355Z,11.05
2023-02-23T15:53:13.761Z,9.60
2023-02-23T15:56:43.688Z,9.35
2023-02-23T16:01:46.534Z,10.23
2023-02-23T16:04:13.488Z,9.88
2023-02-23T16:06:47.347Z,10.00
2023-02-23T16:09:26.269Z,10.63
2023-02-23T16:12:03.543Z,9.50
2023-02-23T16:14:42.602Z,8.80
2023-02-23T16:17:46.107Z,9.27
2023-02-23T16:20:41.528Z,9.90
2023-02-23T16:23:33.249Z,9.35
2023-02-23T16:26:11.969Z,9.15
2023-02-23T16:28:45.371Z,8.85
2023-02-23T16:31:14.144Z,9.18
2023-02-23T16:33:52.092Z,9.10
2023-02-23T16:36:22.638Z,8.82
2023-02-23T16:38:59.778Z,9.27
2023-02-23T16:41:32.082Z,9.45
2023-02-23T16:44:07.176Z,8.65
2023-02-23T16:46:54.226Z,8.25
2023-02-23T16:49:23.399Z,8.60
2023-02-23T16:51:51.551Z,8.20
2023-02-23T16:54:18.666Z,8.25
2023-02-23T16:56:47.356Z,8.25
2023-02-23T16:59:17.526Z,8.10
2023-02-23T17:01:50.058Z,7.95
2023-02-23T17:04:18.901Z,7.95
2023-02-23T17:06:48.470Z,9.25
2023-02-23T17:09:15.411Z,8.40
2023-02-23T17:11:47.290Z,8.15
2023-02-23T17:14:32.583Z,8.07
2023-02-23T17:17:02.269Z,7.55
2023-02-23T17:19:29.357Z,8.05
2023-02-23T17:21:56.342Z,8.02
2023-02-23T17:24:26.108Z,8.35
2023-02-23T17:29:20.319Z,7.13
2023-02-23T17:31:47.485Z,7.93
2023-02-23T17:34:14.585Z,7.22
2023-02-23T17:36:41.542Z,8.30
2023-02-23T17:39:09.990Z,8.50
2023-02-23T17:41:37.050Z,8.70
2023-02-23T17:44:05.902Z,8.60
2023-02-23T17:46:33.075Z,8.60
2023-02-23T17:49:00.063Z,9.68
2023-02-23T17:51:27.134Z,9.30
2023-02-23T17:53:54.158Z,8.55
2023-02-23T17:56:21.227Z,8.85
2023-02-23T17:58:48.295Z,8.45
2023-02-23T18:01:16.120Z,7.85
2023-02-23T18:03:43.534Z,7.70
2023-02-23T18:06:13.131Z,7.13
2023-02-23T18:08:42.436Z,8.35
2023-02-23T18:11:10.227Z,8.30
2023-02-23T18:13:37.614Z,8.95
2023-02-23T18:16:10.699Z,8.77
2023-02-23T18:18:44.702Z,10.00
2023-02-23T18:21:14.478Z,9.15
2023-02-23T18:26:14.617Z,9.43
2023-02-23T18:28:44.546Z,9.18
2023-02-23T18:31:38.083Z,9.50
2023-02-23T18:34:05.244Z,10.25
2023-02-23T18:36:38.303Z,9.75
2023-02-23T18:39:07.518Z,10.60
2023-02-23T18:41:34.993Z,10.30
2023-02-23T18:44:04.767Z,9.88
2023-02-23T18:48:59.208Z,10.13
2023-02-23T18:51:26.366Z,9.98
2023-02-23T18:53:54.035Z,11.40
2023-02-23T18:56:25.168Z,10.13
2023-02-23T18:58:54.390Z,10.85
2023-02-23T19:01:27.119Z,10.35
2023-02-23T19:03:55.208Z,11.07
2023-02-23T19:06:23.844Z,11.20
2023-02-23T19:08:56.546Z,11.80
2023-02-23T19:11:30.857Z,11.98
2023-02-23T19:14:01.220Z,13.45
2023-02-23T19:16:31.323Z,13.60
2023-02-23T19:18:59.803Z,15.80
2023-02-23T19:21:27.784Z,17.58
2023-02-23T19:23:57.815Z,18.92
2023-02-23T19:26:26.221Z,18.80
2023-02-23T19:28:53.228Z,18.88
2023-02-23T19:31:22.859Z,19.67
2023-02-23T19:33:50.425Z,18.42
2023-02-23T19:36:20.302Z,19.38
2023-02-23T19:41:19.727Z,19.60
2023-02-23T19:43:47.286Z,17.40
2023-02-23T19:46:17.355Z,15.77
2023-02-23T19:48:48.692Z,15.40
2023-02-23T19:51:15.731Z,14.10
2023-02-23T19:53:42.699Z,15.10
2023-02-23T19:56:13.798Z,17.02
2023-02-23T19:58:44.841Z,15.93
2023-02-23T20:01:16.869Z,15.23
2023-02-23T20:03:45.461Z,15.95
2023-02-23T20:06:13.903Z,15.65
2023-02-23T20:08:43.272Z,15.30
2023-02-23T20:11:10.853Z,15.15
2023-02-23T20:13:40.651Z,14.40
2023-02-23T20:18:42.461Z,15.05
2023-02-23T20:21:12.958Z,18.20
2023-02-23T20:23:41.476Z,20.70
2023-02-23T20:26:12.426Z,17.73
2023-02-23T20:28:40.203Z,17.65
2023-02-23T20:31:26.623Z,17.00
2023-02-23T20:33:56.364Z,17.25
2023-02-23T20:36:24.845Z,17.67
2023-02-23T20:38:52.187Z,17.08
2023-02-23T20:41:20.500Z,18.05
2023-02-23T20:43:47.766Z,17.70
2023-02-23T20:46:17.093Z,15.75
2023-02-23T20:48:44.281Z,16.92
2023-02-23T20:51:14.991Z,15.48
2023-02-23T20:53:46.705Z,14.90
2023-02-23T20:56:16.875Z,15.52
2023-02-23T20:58:44.697Z,15.38
2023-02-23T21:01:21.335Z,16.38
2023-02-23T21:03:53.710Z,16.35
2023-02-23T21:06:23.312Z,17.77
2023-02-23T21:08:51.212Z,17.17
2023-02-23T21:11:22.140Z,17.73
2023-02-23T21:13:49.292Z,17.35
2023-02-23T21:16:18.019Z,15.52
2023-02-23T21:18:45.613Z,17.45
2023-02-23T21:21:15.744Z,16.33
2023-02-23T21:23:45.550Z,17.67
2023-02-23T21:28:44.643Z,16.73
2023-02-23T21:31:13.275Z,18.13
2023-02-23T21:33:41.934Z,18.05
2023-02-23T21:36:10.617Z,18.63
2023-02-23T21:38:43.323Z,17.75
2023-02-23T21:41:12.409Z,18.25
2023-02-23T21:43:42.904Z,17.75
2023-02-23T21:46:12.934Z,18.65
2023-02-23T21:48:40.445Z,18.13
2023-02-23T21:51:11.617Z,17.00
2023-02-23T21:53:39.124Z,17.90
2023-02-23T21:56:22.547Z,17.08
2023-02-23T21:58:55.312Z,17.42
2023-02-23T22:01:28.659Z,17.88
2023-02-23T22:03:56.545Z,18.27
2023-02-23T22:06:25.921Z,18.45
2023-02-23T22:08:53.633Z,18.23
2023-02-23T22:11:24.920Z,17.85
2023-02-23T22:13:58.880Z,17.95
2023-02-23T22:16:32.300Z,17.33
2023-02-23T22:19:03.738Z,16.77
2023-02-23T22:21:35.049Z,17.08
2023-02-23T22:24:05.489Z,16.60
2023-02-23T22:26:39.036Z,16.45
2023-02-23T22:29:06.939Z,15.82
2023-02-23T22:31:34.231Z,14.77
2023-02-23T22:34:01.408Z,15.68
2023-02-23T22:36:32.651Z,15.07
2023-02-23T22:39:00.838Z,17.27
2023-02-23T22:41:29.691Z,18.60
2023-02-23T22:43:57.803Z,19.10
2023-02-23T22:46:26.072Z,18.45
2023-02-23T22:48:53.105Z,18.25
2023-02-23T22:51:20.870Z,18.88
2023-02-23T22:53:48.159Z,19.35
2023-02-23T22:56:15.157Z,17.27
2023-02-23T22:58:43.071Z,17.15
2023-02-23T23:01:12.351Z,17.80
2023-02-23T23:03:47.764Z,17.23
2023-02-23T23:06:23.078Z,16.60
2023-02-23T23:08:52.472Z,17.63
2023-02-23T23:11:22.589Z,17.02
2023-02-23T23:13:52.005Z,17.05
2023-02-23T23:16:48.587Z,17.05
2023-02-23T23:20:11.929Z,17.35
2023-02-23T23:23:35.430Z,16.58
2023-02-23T23:26:02.385Z,15.02
2023-02-23T23:28:29.316Z,17.85
2023-02-23T23:30:56.312Z,16.05
2023-02-23T23:33:27.041Z,15.88
2023-02-23T23:35:53.997Z,18.70
2023-02-23T23:38:21.279Z,28.60
2023-02-23T23:40:48.187Z,17.83
2023-02-23T23:43:15.234Z,16.52
2023-02-23T23:45:44.040Z,16.13
2023-02-23T23:49:20.648Z,15.77
2023-02-23T23:51:50.554Z,15.45
2023-02-23T23:54:21.662Z,13.65
2023-02-23T23:56:49.750Z,14.88
2023-02-23T23:59:21.414Z,12.60
